createdAt,value
2022-12-03T00:00:48.057Z,1.73
2022-12-03T00:03:16.140Z,1.78
2022-12-03T00:05:48.814Z,1.80
2022-12-03T00:08:17.171Z,1.82
2022-12-03T00:10:44.783Z,1.85
2022-12-03T00:13:12.336Z,1.88
2022-12-03T00:15:40.162Z,1.89
2022-12-03T00:18:07.936Z,1.88
2022-12-03T00:20:35.595Z,1.92
2022-12-03T00:23:03.402Z,1.82
2022-12-03T00:25:31.092Z,1.77
2022-12-03T00:27:58.926Z,1.64
2022-12-03T00:30:26.786Z,1.54
2022-12-03T00:32:54.276Z,1.54
2022-12-03T00:35:21.797Z,1.43
2022-12-03T00:37:49.854Z,1.48
2022-12-03T00:40:17.424Z,1.47
2022-12-03T00:42:44.929Z,1.46
2022-12-03T00:45:12.906Z,1.42
2022-12-03T00:47:40.566Z,1.28
2022-12-03T00:50:08.555Z,1.24
2022-12-03T00:52:36.304Z,1.22
2022-12-03T00:55:04.372Z,1.28
2022-12-03T00:57:31.905Z,1.31
2022-12-03T00:59:59.713Z,1.35
2022-12-03T01:02:27.286Z,1.37
2022-12-03T01:04:55.199Z,1.24
2022-12-03T01:07:23.297Z,1.11
2022-12-03T01:09:51.168Z,1.16
2022-12-03T01:12:18.849Z,1.12
2022-12-03T01:14:47.119Z,1.05
2022-12-03T01:17:14.646Z,0.94
2022-12-03T01:19:48.235Z,1.01
2022-12-03T01:22:16.659Z,1.00
2022-12-03T01:24:44.256Z,1.00
2022-12-03T01:27:11.828Z,1.06
2022-12-03T01:29:39.717Z,1.12
2022-12-03T01:32:19.868Z,1.19
2022-12-03T01:34:53.101Z,1.22
2022-12-03T01:37:23.003Z,1.28
2022-12-03T01:39:51.117Z,1.25
2022-12-03T01:42:25.225Z,1.34
2022-12-03T01:44:55.161Z,1.29
2022-12-03T01:47:27.807Z,1.22
2022-12-03T01:50:02.033Z,1.31
2022-12-03T01:52:32.657Z,1.33
2022-12-03T01:55:03.339Z,1.35
2022-12-03T01:57:37.089Z,1.23
2022-12-03T02:00:05.787Z,0.94
2022-12-03T02:02:33.481Z,0.84
2022-12-03T02:05:01.756Z,0.65
2022-12-03T02:07:35.466Z,0.70
2022-12-03T02:10:04.693Z,0.56
2022-12-03T02:12:38.640Z,0.58
2022-12-03T02:15:07.207Z,0.55
2022-12-03T02:17:35.081Z,0.64
2022-12-03T02:20:05.262Z,0.54
2022-12-03T02:22:44.017Z,0.46
2022-12-03T02:25:29.427Z,0.40
2022-12-03T02:27:57.000Z,0.41
2022-12-03T02:30:26.755Z,0.47
2022-12-03T02:32:54.744Z,0.48
2022-12-03T02:35:27.194Z,0.67
2022-12-03T02:38:09.660Z,0.59
2022-12-03T02:40:37.336Z,0.35
2022-12-03T02:43:05.468Z,0.58
2022-12-03T02:45:41.781Z,0.64
2022-12-03T02:48:19.219Z,0.71
2022-12-03T02:50:55.563Z,0.74
2022-12-03T02:53:27.482Z,0.83
2022-12-03T02:55:58.311Z,0.92
2022-12-03T02:58:27.584Z,0.96
2022-12-03T03:00:55.895Z,1.05
2022-12-03T03:03:25.043Z,1.12
2022-12-03T03:05:53.916Z,1.19
2022-12-03T03:08:21.772Z,1.21
2022-12-03T03:10:50.003Z,1.28
2022-12-03T03:13:20.839Z,1.33
2022-12-03T03:15:48.585Z,1.37
2022-12-03T03:18:16.785Z,1.40
2022-12-03T03:20:45.375Z,1.42
2022-12-03T03:23:12.770Z,1.43
2022-12-03T03:25:43.175Z,1.37
2022-12-03T03:28:12.094Z,1.32
2022-12-03T03:30:41.359Z,1.45
2022-12-03T03:33:09.254Z,1.49
2022-12-03T03:35:37.338Z,1.56
2022-12-03T03:38:05.860Z,1.54
2022-12-03T03:44:24.767Z,1.62
2022-12-03T03:46:52.644Z,1.60
2022-12-03T03:49:20.511Z,1.65
2022-12-03T03:51:48.177Z,1.66
2022-12-03T03:54:16.115Z,1.68
2022-12-03T03:56:43.691Z,1.62
2022-12-03T03:59:13.278Z,1.67
2022-12-03T04:01:41.724Z,1.65
2022-12-03T04:04:17.409Z,1.70
2022-12-03T04:06:45.033Z,1.64
2022-12-03T04:09:12.873Z,1.64
2022-12-03T04:11:58.596Z,1.57
2022-12-03T04:14:26.391Z,1.55
2022-12-03T04:16:54.083Z,1.53
2022-12-03T04:19:21.715Z,1.58
2022-12-03T04:22:07.961Z,1.62
2022-12-03T04:24:35.553Z,1.57
2022-12-03T04:27:22.209Z,1.55
2022-12-03T04:29:49.815Z,1.58
2022-12-03T04:32:35.892Z,1.41
2022-12-03T04:35:22.418Z,1.52
2022-12-03T04:37:50.339Z,1.56
2022-12-03T04:40:38.695Z,1.56
2022-12-03T04:43:06.587Z,1.56
2022-12-03T04:45:34.169Z,1.58
2022-12-03T04:48:01.827Z,1.56
2022-12-03T04:50:29.814Z,1.64
2022-12-03T04:52:57.438Z,1.63
2022-12-03T04:55:24.956Z,1.58
2022-12-03T04:57:53.254Z,1.65
2022-12-03T05:00:21.019Z,1.61
2022-12-03T05:02:48.688Z,1.63
2022-12-03T05:05:16.743Z,1.63
2022-12-03T05:07:44.307Z,1.60
2022-12-03T05:10:12.605Z,1.57
2022-12-03T05:12:40.443Z,1.54
2022-12-03T05:15:08.233Z,1.52
2022-12-03T05:17:35.781Z,1.52
2022-12-03T05:20:22.598Z,1.52
2022-12-03T05:22:50.135Z,1.56
2022-12-03T05:25:17.973Z,1.54
2022-12-03T05:27:45.547Z,1.49
2022-12-03T05:30:13.418Z,1.48
2022-12-03T05:32:41.264Z,1.54
2022-12-03T05:35:09.888Z,1.57
2022-12-03T05:37:37.685Z,1.54
2022-12-03T05:40:06.190Z,1.51
2022-12-03T05:42:52.271Z,1.32
2022-12-03T05:45:27.851Z,1.40
2022-12-03T05:47:56.181Z,1.38
2022-12-03T05:50:25.906Z,1.42
2022-12-03T05:52:55.980Z,1.48
2022-12-03T05:55:23.811Z,1.50
2022-12-03T05:57:51.309Z,1.48
2022-12-03T06:00:21.730Z,1.49
2022-12-03T06:02:49.874Z,1.53
2022-12-03T06:05:19.593Z,1.44
2022-12-03T06:07:48.803Z,1.20
2022-12-03T06:10:22.092Z,0.99
2022-12-03T06:12:49.780Z,1.02
2022-12-03T06:15:18.347Z,0.85
2022-12-03T06:17:45.991Z,0.96
2022-12-03T06:20:18.677Z,1.12
2022-12-03T06:22:47.196Z,1.10
2022-12-03T06:25:15.190Z,1.19
2022-12-03T06:27:43.000Z,1.27
2022-12-03T06:30:11.889Z,1.22
2022-12-03T06:32:39.480Z,1.25
2022-12-03T06:35:07.323Z,1.13
2022-12-03T06:37:35.079Z,1.06
2022-12-03T06:40:02.637Z,1.26
2022-12-03T06:42:30.281Z,1.32
2022-12-03T06:44:58.106Z,1.29
2022-12-03T06:47:25.658Z,1.33
2022-12-03T06:49:53.348Z,1.33
2022-12-03T06:52:21.133Z,1.42
2022-12-03T06:54:48.665Z,1.43
2022-12-03T06:57:16.388Z,1.43
2022-12-03T06:59:44.203Z,1.48
2022-12-03T07:02:12.861Z,1.54
2022-12-03T07:04:45.940Z,1.55
2022-12-03T07:07:14.711Z,1.61
2022-12-03T07:09:42.445Z,1.66
2022-12-03T07:12:10.402Z,1.67
2022-12-03T07:14:38.435Z,1.58
2022-12-03T07:17:06.062Z,1.60
2022-12-03T07:19:33.745Z,1.32
2022-12-03T07:22:01.701Z,1.47
2022-12-03T07:24:29.246Z,1.58
2022-12-03T07:26:56.780Z,1.43
2022-12-03T07:29:24.522Z,1.57
2022-12-03T07:31:52.285Z,1.71
2022-12-03T07:34:19.998Z,1.71
2022-12-03T07:36:47.862Z,1.78
2022-12-03T07:39:15.642Z,1.93
2022-12-03T07:41:43.225Z,1.98
2022-12-03T07:44:14.690Z,2.08
2022-12-03T07:46:42.732Z,2.03
2022-12-03T07:49:12.202Z,2.17
2022-12-03T07:51:40.426Z,2.27
2022-12-03T07:54:08.002Z,2.33
2022-12-03T07:56:35.629Z,2.33
2022-12-03T07:59:03.719Z,2.32
2022-12-03T08:01:31.413Z,2.40
2022-12-03T08:03:59.818Z,2.43
2022-12-03T08:06:27.301Z,2.46
2022-12-03T08:08:56.996Z,2.49
2022-12-03T08:11:24.814Z,2.52
2022-12-03T08:13:52.462Z,2.55
2022-12-03T08:16:22.458Z,2.61
2022-12-03T08:18:51.233Z,2.62
2022-12-03T08:21:20.249Z,2.59
2022-12-03T08:23:48.201Z,2.61
2022-12-03T08:26:19.630Z,2.55
2022-12-03T08:28:47.280Z,2.61
2022-12-03T08:31:19.898Z,2.62
2022-12-03T08:33:49.659Z,2.64
2022-12-03T08:36:25.658Z,2.63
2022-12-03T08:38:59.566Z,2.62
2022-12-03T08:41:45.616Z,2.69
2022-12-03T08:44:16.470Z,2.73
2022-12-03T08:46:45.000Z,2.77
2022-12-03T08:49:14.329Z,2.83
2022-12-03T08:51:41.830Z,2.89
2022-12-03T08:54:13.596Z,2.96
2022-12-03T08:56:41.599Z,3.03
2022-12-03T08:59:27.022Z,3.08
2022-12-03T09:01:56.082Z,3.18
2022-12-03T09:04:39.365Z,3.25
2022-12-03T09:07:07.269Z,3.28
2022-12-03T09:09:35.083Z,3.27
2022-12-03T09:12:04.443Z,3.31
2022-12-03T09:14:32.324Z,3.33
2022-12-03T09:16:59.975Z,3.35
2022-12-03T09:19:30.938Z,3.35
2022-12-03T09:21:58.910Z,3.40
2022-12-03T09:24:27.196Z,3.43
2022-12-03T09:26:54.768Z,3.40
2022-12-03T09:29:23.025Z,3.48
2022-12-03T09:31:50.644Z,3.54
2022-12-03T09:34:18.308Z,3.56
2022-12-03T09:36:46.057Z,3.67
2022-12-03T09:39:13.789Z,3.71
2022-12-03T09:41:43.386Z,3.77
2022-12-03T09:44:17.485Z,3.78
2022-12-03T09:46:46.279Z,3.84
2022-12-03T09:49:16.432Z,3.85
2022-12-03T09:51:44.540Z,3.92
2022-12-03T09:54:25.039Z,3.99
2022-12-03T09:56:54.249Z,4.08
2022-12-03T09:59:23.306Z,4.15
2022-12-03T10:01:52.546Z,4.21
2022-12-03T10:04:20.528Z,4.27
2022-12-03T10:06:48.225Z,4.34
2022-12-03T10:13:02.309Z,4.49
2022-12-03T10:15:30.275Z,4.52
2022-12-03T10:17:58.020Z,4.61
2022-12-03T10:20:26.182Z,4.66
2022-12-03T10:22:54.002Z,4.72
2022-12-03T10:25:22.804Z,4.79
2022-12-03T10:27:59.263Z,4.86
2022-12-03T10:30:28.836Z,4.90
2022-12-03T10:32:58.114Z,4.97
2022-12-03T10:35:27.238Z,5.04
2022-12-03T10:38:08.300Z,5.11
2022-12-03T10:40:39.446Z,5.16
2022-12-03T10:43:13.461Z,5.20
2022-12-03T10:45:42.009Z,5.27
2022-12-03T10:48:21.516Z,5.33
2022-12-03T10:50:57.511Z,5.36
2022-12-03T10:53:30.699Z,5.41
2022-12-03T10:55:59.952Z,5.48
2022-12-03T10:58:29.861Z,5.53
2022-12-03T11:01:01.037Z,5.57
2022-12-03T11:03:34.109Z,5.66
2022-12-03T11:06:03.208Z,5.65
2022-12-03T11:08:34.551Z,5.73
2022-12-03T11:11:29.632Z,5.78
2022-12-03T11:14:02.289Z,5.83
2022-12-03T11:16:42.111Z,5.85
2022-12-03T11:19:12.871Z,5.91
2022-12-03T11:22:05.911Z,5.97
2022-12-03T11:24:35.674Z,6.01
2022-12-03T11:27:03.290Z,6.04
2022-12-03T11:29:56.191Z,6.09
2022-12-03T11:32:39.024Z,6.13
2022-12-03T11:35:15.348Z,6.17
2022-12-03T11:37:43.112Z,6.19
2022-12-03T11:40:16.469Z,6.23
2022-12-03T11:42:46.405Z,6.28
2022-12-03T11:45:17.958Z,6.29
2022-12-03T11:47:49.070Z,6.37
2022-12-03T11:50:24.361Z,6.40
2022-12-03T11:53:23.536Z,6.47
2022-12-03T11:56:04.180Z,6.50
2022-12-03T11:58:33.284Z,6.51
2022-12-03T12:01:02.746Z,6.53
2022-12-03T12:03:36.471Z,6.59
2022-12-03T12:06:07.907Z,6.59
2022-12-03T12:08:38.362Z,6.63
2022-12-03T12:11:31.056Z,6.71
2022-12-03T12:14:06.847Z,6.71
2022-12-03T12:16:41.330Z,6.75
2022-12-03T12:19:28.863Z,6.75
2022-12-03T12:21:56.981Z,6.82
2022-12-03T12:24:31.132Z,6.85
2022-12-03T12:27:15.580Z,6.87
2022-12-03T12:29:48.014Z,6.92
2022-12-03T12:32:17.948Z,6.92
2022-12-03T12:34:48.567Z,6.94
2022-12-03T12:37:33.005Z,6.95
2022-12-03T12:40:04.376Z,6.94
2022-12-03T12:42:37.062Z,6.92
2022-12-03T12:45:07.810Z,6.91
2022-12-03T12:47:36.436Z,6.91
2022-12-03T12:50:11.235Z,6.95
2022-12-03T12:52:54.580Z,6.96
2022-12-03T12:55:23.385Z,6.96
2022-12-03T12:57:51.575Z,6.96
2022-12-03T13:00:22.220Z,6.96
2022-12-03T13:02:58.884Z,6.94
2022-12-03T13:05:46.672Z,6.96
2022-12-03T13:08:29.184Z,6.97
2022-12-03T13:10:59.160Z,6.96
2022-12-03T13:13:43.594Z,6.96
2022-12-03T13:16:20.645Z,6.92
2022-12-03T13:18:56.955Z,6.92
2022-12-03T13:21:41.470Z,6.89
2022-12-03T13:24:42.742Z,6.87
2022-12-03T13:27:30.922Z,6.85
2022-12-03T13:30:02.337Z,6.84
2022-12-03T13:32:38.908Z,6.83
2022-12-03T13:35:07.845Z,6.81
2022-12-03T13:37:37.131Z,6.82
2022-12-03T13:40:35.098Z,6.81
2022-12-03T13:43:32.369Z,6.76
2022-12-03T13:46:00.276Z,6.77
2022-12-03T13:48:32.317Z,6.77
2022-12-03T13:51:02.424Z,6.75
2022-12-03T13:53:36.457Z,6.69
2022-12-03T13:56:30.717Z,6.68
2022-12-03T13:59:00.440Z,6.66
2022-12-03T14:01:28.749Z,6.63
2022-12-03T14:03:56.981Z,6.63
2022-12-03T14:06:24.461Z,6.59
2022-12-03T14:08:52.009Z,6.59
2022-12-03T14:11:38.407Z,6.56
2022-12-03T14:14:06.144Z,6.55
2022-12-03T14:16:34.020Z,6.52
2022-12-03T14:19:01.727Z,6.50
2022-12-03T14:21:29.529Z,6.46
2022-12-03T14:23:57.324Z,6.44
2022-12-03T14:26:24.895Z,6.36
2022-12-03T14:28:52.411Z,6.37
2022-12-03T14:31:20.465Z,6.33
2022-12-03T14:33:48.065Z,6.26
2022-12-03T14:36:15.550Z,6.28
2022-12-03T14:38:43.341Z,6.25
2022-12-03T14:41:30.851Z,6.20
2022-12-03T14:43:58.680Z,6.17
2022-12-03T14:46:26.333Z,6.14
2022-12-03T14:48:54.603Z,6.12
2022-12-03T14:51:22.391Z,6.07
2022-12-03T14:53:50.056Z,6.02
2022-12-03T14:56:19.523Z,5.98
2022-12-03T14:58:47.667Z,5.94
2022-12-03T15:01:15.336Z,5.89
2022-12-03T15:03:42.846Z,5.85
2022-12-03T15:06:10.674Z,5.82
2022-12-03T15:08:38.276Z,5.75
2022-12-03T15:11:06.336Z,5.72
2022-12-03T15:13:34.150Z,5.71
2022-12-03T15:16:01.709Z,5.66
2022-12-03T15:18:31.096Z,5.57
2022-12-03T15:20:58.886Z,5.46
2022-12-03T15:23:26.502Z,5.43
2022-12-03T15:25:54.027Z,5.38
2022-12-03T15:28:23.145Z,5.29
2022-12-03T15:30:50.985Z,5.21
2022-12-03T15:33:18.629Z,5.10
2022-12-03T15:35:46.546Z,5.05
2022-12-03T15:38:16.061Z,4.95
2022-12-03T15:40:43.943Z,4.87
2022-12-03T15:43:12.356Z,4.81
2022-12-03T15:45:40.362Z,4.76
2022-12-03T15:48:08.005Z,4.78
2022-12-03T15:50:40.092Z,4.69
2022-12-03T15:53:07.949Z,4.70
2022-12-03T15:55:35.895Z,4.67
2022-12-03T15:58:03.673Z,4.64
2022-12-03T16:00:31.356Z,4.64
2022-12-03T16:02:59.611Z,4.69
2022-12-03T16:05:27.761Z,4.72
2022-12-03T16:07:55.602Z,4.75
2022-12-03T16:10:24.279Z,4.75
2022-12-03T16:12:51.819Z,4.74
2022-12-03T16:15:23.684Z,4.74
2022-12-03T16:17:55.170Z,4.72
2022-12-03T16:20:23.938Z,4.70
2022-12-03T16:22:52.073Z,4.72
2022-12-03T16:25:19.897Z,4.67
2022-12-03T16:27:47.617Z,4.66
2022-12-03T16:30:15.470Z,4.64
2022-12-03T16:32:43.326Z,4.64
2022-12-03T16:35:10.873Z,4.60
2022-12-03T16:37:38.540Z,4.64
2022-12-03T16:40:07.367Z,4.64
2022-12-03T16:42:37.026Z,4.64
2022-12-03T16:45:08.933Z,4.63
2022-12-03T16:47:37.166Z,4.61
2022-12-03T16:50:07.796Z,4.57
2022-12-03T16:52:35.831Z,4.54
2022-12-03T16:55:03.972Z,4.49
2022-12-03T16:57:33.897Z,4.35
2022-12-03T17:00:01.735Z,4.34
2022-12-03T17:02:29.799Z,4.30
2022-12-03T17:04:57.402Z,4.26
2022-12-03T17:07:24.978Z,4.22
2022-12-03T17:09:53.374Z,4.21
2022-12-03T17:12:21.076Z,4.15
2022-12-03T17:14:48.718Z,4.16
2022-12-03T17:17:18.623Z,4.16
2022-12-03T17:19:46.377Z,4.16
2022-12-03T17:22:14.283Z,4.11
2022-12-03T17:24:44.042Z,4.17
2022-12-03T17:27:12.912Z,4.15
2022-12-03T17:29:40.518Z,4.14
2022-12-03T17:32:08.481Z,4.13
2022-12-03T17:34:36.145Z,4.07
2022-12-03T17:37:03.794Z,3.87
2022-12-03T17:39:31.667Z,3.86
2022-12-03T17:41:59.396Z,3.80
2022-12-03T17:44:27.031Z,3.85
2022-12-03T17:46:55.085Z,3.84
2022-12-03T17:49:25.711Z,3.75
2022-12-03T17:51:57.758Z,3.79
2022-12-03T17:54:38.012Z,3.75
2022-12-03T17:57:13.085Z,3.75
2022-12-03T17:59:42.029Z,3.66
2022-12-03T18:02:09.678Z,3.63
2022-12-03T18:04:37.637Z,3.65
2022-12-03T18:07:05.146Z,3.69
2022-12-03T18:09:32.710Z,3.61
2022-12-03T18:12:00.585Z,3.60
2022-12-03T18:14:28.368Z,3.52
2022-12-03T18:16:56.259Z,3.47
2022-12-03T18:19:26.519Z,3.42
2022-12-03T18:21:54.980Z,3.36
2022-12-03T18:24:22.802Z,3.36
2022-12-03T18:26:50.775Z,3.41
2022-12-03T18:29:18.559Z,3.44
2022-12-03T18:31:46.494Z,3.45
2022-12-03T18:34:14.895Z,3.52
2022-12-03T18:36:42.785Z,3.53
2022-12-03T18:39:18.842Z,3.55
2022-12-03T18:41:46.622Z,3.54
2022-12-03T18:44:14.529Z,3.51
2022-12-03T18:46:53.356Z,3.47
2022-12-03T18:49:21.984Z,3.44
2022-12-03T18:51:53.277Z,3.38
2022-12-03T18:54:25.741Z,3.33
2022-12-03T18:56:53.304Z,3.31
2022-12-03T18:59:21.374Z,3.32
2022-12-03T19:01:50.211Z,3.28
2022-12-03T19:04:17.866Z,3.20
2022-12-03T19:06:45.521Z,3.16
2022-12-03T19:09:13.520Z,3.16
2022-12-03T19:11:41.418Z,3.14
2022-12-03T19:14:11.168Z,3.10
2022-12-03T19:16:40.429Z,3.09
2022-12-03T19:19:09.497Z,3.09
2022-12-03T19:21:37.649Z,3.06
2022-12-03T19:26:55.561Z,2.98
2022-12-03T19:29:24.517Z,2.97
2022-12-03T19:31:52.586Z,2.98
2022-12-03T19:34:20.729Z,2.98
2022-12-03T19:36:48.654Z,3.03
2022-12-03T19:39:16.601Z,3.07
2022-12-03T19:41:44.775Z,3.12
2022-12-03T19:44:14.635Z,3.07
2022-12-03T19:46:43.407Z,3.12
2022-12-03T19:49:11.430Z,3.10
2022-12-03T19:51:39.364Z,3.14
2022-12-03T19:54:10.122Z,3.15
2022-12-03T19:56:37.882Z,3.18
2022-12-03T19:59:06.360Z,3.17
2022-12-03T20:01:35.957Z,3.21
2022-12-03T20:04:04.356Z,3.20
2022-12-03T20:06:34.333Z,3.23
2022-12-03T20:09:06.371Z,3.24
2022-12-03T20:11:35.141Z,3.25
2022-12-03T20:14:07.083Z,3.26
2022-12-03T20:16:35.796Z,3.27
2022-12-03T20:19:06.371Z,3.27
2022-12-03T20:21:36.455Z,3.28
2022-12-03T20:24:05.560Z,3.28
2022-12-03T20:26:34.540Z,3.28
2022-12-03T20:29:02.506Z,3.28
2022-12-03T20:31:31.655Z,3.26
2022-12-03T20:34:01.327Z,3.26
2022-12-03T20:36:30.241Z,3.26
2022-12-03T20:39:01.119Z,3.22
2022-12-03T20:41:29.146Z,3.21
2022-12-03T20:43:56.988Z,3.20
2022-12-03T20:46:30.448Z,3.20
2022-12-03T20:48:58.983Z,3.18
2022-12-03T20:51:29.749Z,3.17
2022-12-03T20:54:00.039Z,3.16
2022-12-03T20:56:32.547Z,3.16
2022-12-03T20:59:01.907Z,3.12
2022-12-03T21:01:30.136Z,3.09
2022-12-03T21:03:57.972Z,3.01
2022-12-03T21:06:27.037Z,3.02
2022-12-03T21:08:56.158Z,3.00
2022-12-03T21:11:26.355Z,2.98
2022-12-03T21:13:55.520Z,2.95
2022-12-03T21:16:52.037Z,2.94
2022-12-03T21:19:13.681Z,2.87
2022-12-03T21:21:41.818Z,2.88
2022-12-03T21:24:11.431Z,2.85
2022-12-03T21:26:39.681Z,2.87
2022-12-03T21:29:07.783Z,2.88
2022-12-03T21:31:37.320Z,2.85
2022-12-03T21:34:05.379Z,2.86
2022-12-03T21:36:33.203Z,2.79
2022-12-03T21:39:00.774Z,2.78
2022-12-03T21:41:28.645Z,2.80
2022-12-03T21:43:56.928Z,2.78
2022-12-03T21:47:09.264Z,2.74
2022-12-03T21:49:12.414Z,2.77
2022-12-03T21:51:40.187Z,2.76
2022-12-03T21:54:07.799Z,2.75
2022-12-03T21:56:35.916Z,2.72
2022-12-03T21:59:04.406Z,2.68
2022-12-03T22:01:32.037Z,2.66
2022-12-03T22:04:05.098Z,2.66
2022-12-03T22:06:32.627Z,2.61
2022-12-03T22:09:00.571Z,2.63
2022-12-03T22:11:28.130Z,2.58
2022-12-03T22:13:57.145Z,2.64
2022-12-03T22:16:25.085Z,2.65
2022-12-03T22:18:54.209Z,2.66
2022-12-03T22:21:21.901Z,2.69
2022-12-03T22:23:49.781Z,2.71
2022-12-03T22:26:19.055Z,2.75
2022-12-03T22:28:48.493Z,2.79
2022-12-03T22:31:17.818Z,2.82
2022-12-03T22:33:48.498Z,2.84
2022-12-03T22:36:21.367Z,2.88
2022-12-03T22:38:50.364Z,2.90
2022-12-03T22:41:18.851Z,2.90
2022-12-03T22:43:47.390Z,2.93
2022-12-03T22:46:15.614Z,2.93
2022-12-03T22:48:45.525Z,2.92
2022-12-03T22:51:15.996Z,2.90
2022-12-03T22:53:43.886Z,2.91
2022-12-03T22:56:12.246Z,2.88
2022-12-03T22:58:40.585Z,2.86
2022-12-03T23:01:08.707Z,2.88
2022-12-03T23:03:36.908Z,2.87
2022-12-03T23:06:12.356Z,2.85
2022-12-03T23:08:40.846Z,2.85
2022-12-03T23:11:08.963Z,2.84
2022-12-03T23:13:36.919Z,2.83
2022-12-03T23:16:05.238Z,2.85
2022-12-03T23:18:33.205Z,2.86
2022-12-03T23:21:01.359Z,2.87
2022-12-03T23:23:29.174Z,2.79
2022-12-03T23:26:07.998Z,2.87
2022-12-03T23:28:38.072Z,2.76
2022-12-03T23:31:06.693Z,2.78
2022-12-03T23:33:38.430Z,2.80
2022-12-03T23:36:07.250Z,2.73
2022-12-03T23:38:34.769Z,2.76
2022-12-03T23:41:11.397Z,2.75
2022-12-03T23:43:39.560Z,2.72
2022-12-03T23:46:13.149Z,2.63
2022-12-03T23:48:42.412Z,2.67
2022-12-03T23:51:12.607Z,2.65
2022-12-03T23:53:40.425Z,2.63
2022-12-03T23:56:09.967Z,2.59
2022-12-03T23:58:38.709Z,2.59
